Time,TemperatureF,DewpointF,PressureIn,WindDirection,WindDirectionDegrees,WindSpeedMPH,WindSpeedGustMPH,Humidity,HourlyPrecipIn,Conditions,Clouds,dailyrainin,SoftwareType,DateUTC
2013-02-27 00:01:00,48.0,5.0,-100.00,SW,215,4.0,7.0,17,-99.99,,,-99.99,,2013-02-27 08:01:00,
2013-02-27 00:11:00,47.0,8.0,-100.00,SSW,205,2.0,6.0,20,-99.99,,,-99.99,,2013-02-27 08:11:00,
2013-02-27 00:21:00,47.0,6.0,-100.00,NW,307,4.0,5.0,18,-99.99,,,-99.99,,2013-02-27 08:21:00,
2013-02-27 00:31:00,46.0,6.0,-100.00,NNE,13,2.0,4.0,19,-99.99,,,-99.99,,2013-02-27 08:31:00,
2013-02-27 00:41:00,45.0,7.0,-100.00,South,178,2.0,5.0,21,-99.99,,,-99.99,,2013-02-27 08:41:00,
2013-02-27 00:52:00,42.0,8.0,-100.00,SSE,161,3.0,7.0,24,-99.99,,,-99.99,,2013-02-27 08:52:00,
2013-02-27 01:01:00,41.0,8.0,-100.00,NNE,22,4.0,6.0,25,-99.99,,,-99.99,,2013-02-27 09:01:00,
2013-02-27 01:11:00,41.0,8.0,-100.00,NNW,337,5.0,8.0,25,-99.99,,,-99.99,,2013-02-27 09:11:00,
2013-02-27 01:21:00,41.0,8.0,-100.00,North,9,2.0,6.0,25,-99.99,,,-99.99,,2013-02-27 09:21:00,
2013-02-27 01:31:00,41.0,8.0,-100.00,North,9,2.0,6.0,25,-99.99,,,-99.99,,2013-02-27 09:31:00,
2013-02-27 01:41:00,42.0,8.0,-100.00,WNW,298,5.0,8.0,24,-99.99,,,-99.99,,2013-02-27 09:41:00,
2013-02-27 01:51:00,43.0,7.0,-100.00,North,357,3.0,5.0,22,-99.99,,,-99.99,,2013-02-27 09:51:00,
2013-02-27 02:01:00,42.0,6.0,-100.00,SSE,149,2.0,5.0,22,-99.99,,,-99.99,,2013-02-27 10:01:00,
2013-02-27 02:12:00,43.0,6.0,-100.00,WNW,283,3.0,6.0,21,-99.99,,,-99.99,,2013-02-27 10:12:00,
2013-02-27 02:21:00,44.0,6.0,-100.00,SE,143,3.0,6.0,20,-99.99,,,-99.99,,2013-02-27 10:21:00,
2013-02-27 02:31:00,47.0,3.0,-100.00,West,261,4.0,8.0,16,-99.99,,,-99.99,,2013-02-27 10:31:00,
2013-02-27 02:42:00,47.0,4.0,-100.00,WSW,254,5.0,11.0,17,-99.99,,,-99.99,,2013-02-27 10:42:00,
2013-02-27 02:52:00,47.0,2.0,-100.00,South,177,4.0,10.0,15,-99.99,,,-99.99,,2013-02-27 10:52:00,
2013-02-27 03:01:00,47.0,2.0,-100.00,West,265,4.0,8.0,15,-99.99,,,-99.99,,2013-02-27 11:01:00,
2013-02-27 03:11:00,47.0,2.0,-100.00,NE,38,4.0,10.0,15,-99.99,,,-99.99,,2013-02-27 11:11:00,
2013-02-27 03:21:00,47.0,2.0,-100.00,WSW,252,5.0,10.0,15,-99.99,,,-99.99,,2013-02-27 11:21:00,
2013-02-27 03:31:00,46.0,2.0,-100.00,SSW,203,6.0,9.0,16,-99.99,,,-99.99,,2013-02-27 11:31:00,
2013-02-27 03:41:00,48.0,1.0,-100.00,WNW,290,4.0,11.0,14,-99.99,,,-99.99,,2013-02-27 11:41:00,
2013-02-27 03:52:00,49.0,0.0,-100.00,NE,44,8.0,20.0,13,-99.99,,,-99.99,,2013-02-27 11:52:00,
2013-02-27 04:01:00,49.0,0.0,-100.00,NE,44,8.0,20.0,13,-99.99,,,-99.99,,2013-02-27 12:01:00,
2013-02-27 04:12:00,49.0,0.0,-100.00,NE,52,12.0,27.0,13,-99.99,,,-99.99,,2013-02-27 12:12:00,
2013-02-27 04:22:00,49.0,2.0,-100.00,ENE,59,13.0,26.0,14,-99.99,,,-99.99,,2013-02-27 12:22:00,
2013-02-27 04:32:00,49.0,2.0,-100.00,NE,47,11.0,21.0,14,-99.99,,,-99.99,,2013-02-27 12:32:00,
2013-02-27 04:42:00,49.0,2.0,-100.00,NNE,29,6.0,19.0,14,-99.99,,,-99.99,,2013-02-27 12:42:00,
2013-02-27 04:52:00,48.0,1.0,-100.00,NNE,13,5.0,21.0,14,-99.99,,,-99.99,,2013-02-27 12:52:00,
2013-02-27 05:02:00,49.0,2.0,-100.00,NNE,33,9.0,23.0,14,-99.99,,,-99.99,,2013-02-27 13:02:00,
2013-02-27 05:11:00,48.0,1.0,-100.00,NE,51,16.0,27.0,14,-99.99,,,-99.99,,2013-02-27 13:11:00,
2013-02-27 05:21:00,48.0,1.0,-100.00,NNE,30,8.0,19.0,14,-99.99,,,-99.99,,2013-02-27 13:21:00,
2013-02-27 05:31:00,48.0,1.0,-100.00,NE,46,14.0,26.0,14,-99.99,,,-99.99,,2013-02-27 13:31:00,
2013-02-27 05:42:00,48.0,1.0,-100.00,ENE,62,21.0,34.0,14,-99.99,,,-99.99,,2013-02-27 13:42:00,
2013-02-27 05:52:00,48.0,1.0,-100.00,ENE,61,21.0,31.0,14,-99.99,,,-99.99,,2013-02-27 13:52:00,
2013-02-27 06:01:00,48.0,1.0,-100.00,ENE,61,22.0,32.0,14,-99.99,,,-99.99,,2013-02-27 14:01:00,
2013-02-27 06:11:00,48.0,1.0,-100.00,ENE,57,20.0,28.0,14,-99.99,,,-99.99,,2013-02-27 14:11:00,
2013-02-27 06:21:00,48.0,0.0,-100.00,NE,54,17.0,29.0,13,-99.99,,,-99.99,,2013-02-27 14:21:00,
2013-02-27 06:31:00,48.0,1.0,-100.00,ENE,57,20.0,31.0,14,-99.99,,,-99.99,,2013-02-27 14:31:00,
2013-02-27 06:42:00,48.0,1.0,-100.00,NE,51,21.0,36.0,14,-99.99,,,-99.99,,2013-02-27 14:42:00,
2013-02-27 06:52:00,48.0,1.0,-100.00,NE,52,25.0,39.0,14,-99.99,,,-99.99,,2013-02-27 14:52:00,
2013-02-27 07:01:00,48.0,0.0,-100.00,NE,56,24.0,37.0,13,-99.99,,,-99.99,,2013-02-27 15:01:00,
2013-02-27 07:12:00,48.0,1.0,-100.00,ENE,58,24.0,37.0,14,-99.99,,,-99.99,,2013-02-27 15:12:00,
2013-02-27 07:22:00,48.0,1.0,-100.00,ENE,63,22.0,34.0,14,-99.99,,,-99.99,,2013-02-27 15:22:00,
2013-02-27 07:32:00,49.0,2.0,-100.00,ENE,60,20.0,35.0,14,-99.99,,,-99.99,,2013-02-27 15:32:00,
2013-02-27 07:41:00,49.0,0.0,-100.00,ENE,60,20.0,31.0,13,-99.99,,,-99.99,,2013-02-27 15:41:00,
2013-02-27 07:52:00,50.0,1.0,-100.00,ENE,59,21.0,30.0,13,-99.99,,,-99.99,,2013-02-27 15:52:00,
2013-02-27 08:01:00,50.0,1.0,-100.00,ENE,58,21.0,29.0,13,-99.99,,,-99.99,,2013-02-27 16:01:00,
2013-02-27 08:11:00,51.0,2.0,-100.00,NE,56,20.0,33.0,13,-99.99,,,-99.99,,2013-02-27 16:11:00,
2013-02-27 08:21:00,51.0,2.0,-100.00,NE,54,21.0,31.0,13,-99.99,,,-99.99,,2013-02-27 16:21:00,
2013-02-27 08:32:00,51.0,2.0,-100.00,ENE,64,24.0,32.0,13,-99.99,,,-99.99,,2013-02-27 16:32:00,
2013-02-27 08:42:00,52.0,3.0,-100.00,ENE,59,20.0,30.0,13,-99.99,,,-99.99,,2013-02-27 16:42:00,
2013-02-27 08:52:00,52.0,3.0,-100.00,NE,56,24.0,33.0,13,-99.99,,,-99.99,,2013-02-27 16:52:00,
2013-02-27 09:01:00,52.0,3.0,-100.00,NE,55,24.0,34.0,13,-99.99,,,-99.99,,2013-02-27 17:01:00,
2013-02-27 09:11:00,52.0,3.0,-100.00,NE,55,22.0,34.0,13,-99.99,,,-99.99,,2013-02-27 17:11:00,
2013-02-27 09:21:00,53.0,2.0,-100.00,ENE,59,22.0,31.0,12,-99.99,,,-99.99,,2013-02-27 17:21:00,
2013-02-27 09:32:00,53.0,2.0,-100.00,ENE,60,22.0,32.0,12,-99.99,,,-99.99,,2013-02-27 17:32:00,
2013-02-27 09:41:00,53.0,2.0,-100.00,NE,56,21.0,33.0,12,-99.99,,,-99.99,,2013-02-27 17:41:00,
2013-02-27 09:52:00,53.0,4.0,-100.00,ENE,62,20.0,30.0,13,-99.99,,,-99.99,,2013-02-27 17:52:00,
2013-02-27 10:01:00,54.0,3.0,-100.00,ENE,59,19.0,33.0,12,-99.99,,,-99.99,,2013-02-27 18:01:00,
2013-02-27 10:11:00,54.0,3.0,-100.00,NE,56,19.0,28.0,12,-99.99,,,-99.99,,2013-02-27 18:11:00,
2013-02-27 10:21:00,54.0,3.0,-100.00,NE,50,18.0,26.0,12,-99.99,,,-99.99,,2013-02-27 18:21:00,
2013-02-27 10:31:00,54.0,3.0,-100.00,NE,50,19.0,30.0,12,-99.99,,,-99.99,,2013-02-27 18:31:00,
2013-02-27 10:42:00,54.0,3.0,-100.00,NE,56,21.0,31.0,12,-99.99,,,-99.99,,2013-02-27 18:42:00,
2013-02-27 10:51:00,55.0,3.0,-100.00,ENE,65,21.0,31.0,12,-99.99,,,-99.99,,2013-02-27 18:51:00,
2013-02-27 11:01:00,56.0,4.0,-100.00,ENE,58,16.0,29.0,12,-99.99,,,-99.99,,2013-02-27 19:01:00,
2013-02-27 11:11:00,56.0,4.0,-100.00,ENE,63,17.0,28.0,12,-99.99,,,-99.99,,2013-02-27 19:11:00,
2013-02-27 11:21:00,56.0,4.0,-100.00,ENE,65,19.0,30.0,12,-99.99,,,-99.99,,2013-02-27 19:21:00,
2013-02-27 11:32:00,56.0,4.0,-100.00,NE,53,18.0,29.0,12,-99.99,,,-99.99,,2013-02-27 19:32:00,
2013-02-27 11:41:00,56.0,4.0,-100.00,NE,53,18.0,29.0,12,-99.99,,,-99.99,,2013-02-27 19:41:00,
2013-02-27 11:51:00,57.0,5.0,-100.00,ENE,63,17.0,31.0,12,-99.99,,,-99.99,,2013-02-27 19:51:00,
2013-02-27 12:01:00,57.0,5.0,-100.00,ENE,60,16.0,27.0,12,-99.99,,,-99.99,,2013-02-27 20:01:00,
2013-02-27 12:11:00,56.0,4.0,-100.00,ENE,61,19.0,29.0,12,-99.99,,,-99.99,,2013-02-27 20:11:00,
2013-02-27 12:21:00,56.0,4.0,-100.00,ENE,64,18.0,27.0,12,-99.99,,,-99.99,,2013-02-27 20:21:00,
2013-02-27 12:31:00,57.0,5.0,-100.00,NE,51,17.0,29.0,12,-99.99,,,-99.99,,2013-02-27 20:31:00,
2013-02-27 12:41:00,57.0,5.0,-100.00,NE,46,14.0,30.0,12,-99.99,,,-99.99,,2013-02-27 20:41:00,
2013-02-27 12:52:00,57.0,5.0,-100.00,NE,55,18.0,26.0,12,-99.99,,,-99.99,,2013-02-27 20:52:00,
2013-02-27 13:01:00,57.0,3.0,-100.00,NE,51,17.0,28.0,11,-99.99,,,-99.99,,2013-02-27 21:01:00,
2013-02-27 13:11:00,57.0,3.0,-100.00,ENE,58,19.0,31.0,11,-99.99,,,-99.99,,2013-02-27 21:11:00,
2013-02-27 13:21:00,56.0,2.0,-100.00,ENE,65,20.0,30.0,11,-99.99,,,-99.99,,2013-02-27 21:21:00,
2013-02-27 13:31:00,57.0,3.0,-100.00,ENE,61,16.0,28.0,11,-99.99,,,-99.99,,2013-02-27 21:31:00,
2013-02-27 13:41:00,58.0,4.0,-100.00,NNE,22,13.0,22.0,11,-99.99,,,-99.99,,2013-02-27 21:41:00,
2013-02-27 13:51:00,59.0,5.0,-100.00,NNW,338,10.0,18.0,11,-99.99,,,-99.99,,2013-02-27 21:51:00,
2013-02-27 14:01:00,59.0,5.0,-100.00,NW,326,11.0,20.0,11,-99.99,,,-99.99,,2013-02-27 22:01:00,
2013-02-27 14:11:00,59.0,6.0,-100.00,NNW,335,12.0,18.0,12,-99.99,,,-99.99,,2013-02-27 22:11:00,
2013-02-27 14:21:00,59.0,6.0,-100.00,NNW,338,13.0,20.0,12,-99.99,,,-99.99,,2013-02-27 22:21:00,
2013-02-27 14:31:00,59.0,5.0,-100.00,NNW,340,13.0,21.0,11,-99.99,,,-99.99,,2013-02-27 22:31:00,
2013-02-27 14:41:00,59.0,5.0,-100.00,NNW,347,10.0,17.0,11,-99.99,,,-99.99,,2013-02-27 22:41:00,
2013-02-27 14:51:00,59.0,5.0,-100.00,NNW,334,11.0,18.0,11,-99.99,,,-99.99,,2013-02-27 22:51:00,
2013-02-27 15:01:00,59.0,5.0,-100.00,NNW,334,11.0,18.0,11,-99.99,,,-99.99,,2013-02-27 23:01:00,
2013-02-27 15:11:00,59.0,5.0,-100.00,NNW,334,11.0,18.0,11,-99.99,,,-99.99,,2013-02-27 23:11:00,
2013-02-27 15:21:00,58.0,4.0,-100.00,North,350,13.0,24.0,11,-99.99,,,-99.99,,2013-02-27 23:21:00,
2013-02-27 15:31:00,58.0,6.0,-100.00,NNW,343,10.0,16.0,12,-99.99,,,-99.99,,2013-02-27 23:31:00,
2013-02-27 15:42:00,58.0,6.0,-100.00,NNW,343,10.0,16.0,12,-99.99,,,-99.99,,2013-02-27 23:42:00,
2013-02-27 15:52:00,58.0,4.0,-100.00,NNW,348,9.0,14.0,11,-99.99,,,-99.99,,2013-02-27 23:52:00,
2013-02-27 16:01:00,59.0,5.0,-100.00,North,352,10.0,16.0,11,-99.99,,,-99.99,,2013-02-28 00:01:00,
2013-02-27 16:11:00,59.0,6.0,-100.00,North,355,10.0,15.0,12,-99.99,,,-99.99,,2013-02-28 00:11:00,
2013-02-27 16:21:00,59.0,6.0,-100.00,NNW,348,8.0,15.0,12,-99.99,,,-99.99,,2013-02-28 00:21:00,
2013-02-27 16:31:00,58.0,6.0,-100.00,NNW,333,10.0,16.0,12,-99.99,,,-99.99,,2013-02-28 00:31:00,
2013-02-27 16:42:00,58.0,6.0,-100.00,NNW,333,10.0,16.0,12,-99.99,,,-99.99,,2013-02-28 00:42:00,
2013-02-27 16:51:00,58.0,6.0,-100.00,NNW,328,8.0,13.0,12,-99.99,,,-99.99,,2013-02-28 00:51:00,
2013-02-27 17:01:00,58.0,7.0,-100.00,NNW,333,6.0,9.0,13,-99.99,,,-99.99,,2013-02-28 01:01:00,
2013-02-27 17:11:00,58.0,6.0,-100.00,North,0,5.0,11.0,12,-99.99,,,-99.99,,2013-02-28 01:11:00,
2013-02-27 17:21:00,56.0,4.0,-100.00,ENE,66,9.0,14.0,12,-99.99,,,-99.99,,2013-02-28 01:21:00,
2013-02-27 17:31:00,56.0,4.0,-100.00,ENE,61,6.0,16.0,12,-99.99,,,-99.99,,2013-02-28 01:31:00,
2013-02-27 17:41:00,56.0,4.0,-100.00,NNE,29,3.0,11.0,12,-99.99,,,-99.99,,2013-02-28 01:41:00,
2013-02-27 17:51:00,55.0,5.0,-100.00,NNE,33,2.0,6.0,13,-99.99,,,-99.99,,2013-02-28 01:51:00,
2013-02-27 18:01:00,54.0,4.0,-100.00,East,100,3.0,9.0,13,-99.99,,,-99.99,,2013-02-28 02:01:00,
2013-02-27 18:11:00,54.0,4.0,-100.00,NE,48,5.0,14.0,13,-99.99,,,-99.99,,2013-02-28 02:11:00,
2013-02-27 18:21:00,52.0,6.0,-100.00,North,350,3.0,8.0,15,-99.99,,,-99.99,,2013-02-28 02:21:00,
2013-02-27 18:31:00,52.0,4.0,-100.00,NNE,12,8.0,15.0,14,-99.99,,,-99.99,,2013-02-28 02:31:00,
2013-02-27 18:41:00,52.0,4.0,-100.00,NNE,12,8.0,15.0,14,-99.99,,,-99.99,,2013-02-28 02:41:00,
2013-02-27 18:51:00,52.0,4.0,-100.00,NNE,12,8.0,15.0,14,-99.99,,,-99.99,,2013-02-28 02:51:00,
2013-02-27 19:01:00,51.0,4.0,-100.00,North,4,4.0,10.0,14,-99.99,,,-99.99,,2013-02-28 03:01:00,
2013-02-27 19:11:00,50.0,3.0,-100.00,NNE,17,5.0,10.0,14,-99.99,,,-99.99,,2013-02-28 03:11:00,
2013-02-27 19:21:00,50.0,4.0,-100.00,NNE,20,6.0,10.0,15,-99.99,,,-99.99,,2013-02-28 03:21:00,
2013-02-27 19:31:00,51.0,4.0,-100.00,NNE,15,7.0,14.0,14,-99.99,,,-99.99,,2013-02-28 03:31:00,
2013-02-27 19:41:00,51.0,4.0,-100.00,NE,49,10.0,18.0,14,-99.99,,,-99.99,,2013-02-28 03:41:00,
2013-02-27 19:51:00,51.0,4.0,-100.00,ENE,58,12.0,22.0,14,-99.99,,,-99.99,,2013-02-28 03:51:00,
2013-02-27 20:01:00,52.0,3.0,-100.00,ESE,106,5.0,13.0,13,-99.99,,,-99.99,,2013-02-28 04:01:00,
2013-02-27 20:11:00,51.0,4.0,-100.00,ESE,121,4.0,9.0,14,-99.99,,,-99.99,,2013-02-28 04:11:00,
2013-02-27 20:21:00,50.0,3.0,-100.00,ESE,121,7.0,11.0,14,-99.99,,,-99.99,,2013-02-28 04:21:00,
2013-02-27 20:31:00,46.0,5.0,-100.00,West,274,2.0,8.0,18,-99.99,,,-99.99,,2013-02-28 04:31:00,
2013-02-27 20:41:00,45.0,5.0,-100.00,SE,140,2.0,5.0,19,-99.99,,,-99.99,,2013-02-28 04:41:00,
2013-02-27 20:51:00,44.0,7.0,-100.00,NNE,27,2.0,7.0,21,-99.99,,,-99.99,,2013-02-28 04:51:00,
2013-02-27 21:01:00,43.0,8.0,-100.00,North,355,1.0,5.0,23,-99.99,,,-99.99,,2013-02-28 05:01:00,
2013-02-27 21:11:00,42.0,8.0,-100.00,NE,34,5.0,7.0,24,-99.99,,,-99.99,,2013-02-28 05:11:00,
2013-02-27 21:22:00,40.0,8.0,-100.00,North,357,5.0,7.0,26,-99.99,,,-99.99,,2013-02-28 05:22:00,
2013-02-27 21:31:00,40.0,9.0,-100.00,NNW,346,6.0,8.0,27,-99.99,,,-99.99,,2013-02-28 05:31:00,
2013-02-27 21:42:00,39.0,9.0,-100.00,NNE,27,4.0,7.0,28,-99.99,,,-99.99,,2013-02-28 05:42:00,
2013-02-27 21:51:00,39.0,9.0,-100.00,NNW,331,4.0,8.0,28,-99.99,,,-99.99,,2013-02-28 05:51:00,
2013-02-27 22:01:00,40.0,8.0,-100.00,NNE,17,5.0,7.0,26,-99.99,,,-99.99,,2013-02-28 06:01:00,
2013-02-27 22:11:00,39.0,9.0,-100.00,NNE,13,4.0,7.0,28,-99.99,,,-99.99,,2013-02-28 06:11:00,
2013-02-27 22:22:00,39.0,8.0,-100.00,North,2,2.0,4.0,27,-99.99,,,-99.99,,2013-02-28 06:22:00,
2013-02-27 22:32:00,39.0,9.0,-100.00,NNE,32,3.0,5.0,28,-99.99,,,-99.99,,2013-02-28 06:32:00,
2013-02-27 22:41:00,39.0,9.0,-100.00,NW,316,2.0,5.0,29,-99.99,,,-99.99,,2013-02-28 06:41:00,
2013-02-27 22:51:00,38.0,8.0,-100.00,North,2,3.0,5.0,28,-99.99,,,-99.99,,2013-02-28 06:51:00,
2013-02-27 23:01:00,38.0,9.0,-100.00,NNE,18,3.0,9.0,29,-99.99,,,-99.99,,2013-02-28 07:01:00,
2013-02-27 23:11:00,39.0,8.0,-100.00,NW,321,4.0,9.0,27,-99.99,,,-99.99,,2013-02-28 07:11:00,
2013-02-27 23:21:00,39.0,9.0,-100.00,NNW,344,3.0,5.0,28,-99.99,,,-99.99,,2013-02-28 07:21:00,
2013-02-27 23:31:00,39.0,9.0,-100.00,NNW,339,4.0,9.0,28,-99.99,,,-99.99,,2013-02-28 07:31:00,
2013-02-27 23:41:00,39.0,8.0,-100.00,NNW,344,3.0,6.0,27,-99.99,,,-99.99,,2013-02-28 07:41:00,
2013-02-27 23:51:00,38.0,9.0,-100.00,North,351,2.0,5.0,29,-99.99,,,-99.99,,2013-02-28 07:51:00,